Time;durP1;ratioP1;P1;durP2;ratioP2;P2;SDS_P1;SDS_P2;PMS_P1;PMS_P2;Temp;Humidity;BMP_temperature;BMP_pressure;BME280_temperature;BME280_humidity;BME280_pressure;Samples;Min_cycle;Max_cycle;Signal;HPM_P1;HPM_P2
2021/11/22 00:09:33;;;;;;;23.60;17.30;;;;;;;6.00;84.88;99056.73;426970;1315;141020;-71
2021/11/22 00:19:40;;;;;;;25.20;15.70;;;;;;;5.95;84.73;99061.90;429250;1310;144999;-67
2021/11/22 00:29:46;;;;;;;22.50;15.90;;;;;;;5.91;84.75;99071.98;421088;1309;141106;-68
2021/11/22 00:39:52;;;;;;;22.50;16.00;;;;;;;5.79;84.56;99085.81;423330;1309;140915;-73
2021/11/22 00:49:58;;;;;;;23.50;15.60;;;;;;;5.75;84.62;99100.05;432177;1310;141615;-67
2021/11/22 01:00:08;;;;;;;22.80;16.10;;;;;;;5.73;84.62;99113.55;428243;1309;140854;-71
2021/11/22 01:10:18;;;;;;;19.60;14.60;;;;;;;5.72;84.55;99117.40;423036;1309;140910;-69
2021/11/22 01:20:29;;;;;;;24.00;16.90;;;;;;;5.68;84.72;99123.33;431236;1309;140461;-71
2021/11/22 01:30:35;;;;;;;22.20;15.60;;;;;;;5.66;84.85;99125.73;428838;1311;141525;-69
2021/11/22 01:40:43;;;;;;;21.40;16.30;;;;;;;5.68;84.89;99128.20;426168;1310;140927;-59
2021/11/22 01:50:50;;;;;;;25.50;16.20;;;;;;;5.71;84.95;99124.23;429095;1310;141537;-61
2021/11/22 02:00:57;;;;;;;29.40;15.20;;;;;;;5.69;85.20;99134.97;435910;1309;141665;-61
2021/11/22 02:11:04;;;;;;;26.70;17.30;;;;;;;5.67;85.18;99131.75;435971;1309;141714;-61
2021/11/22 02:21:11;;;;;;;25.70;17.10;;;;;;;5.67;84.98;99139.39;435149;1306;142105;-61
2021/11/22 02:31:17;;;;;;;21.50;15.60;;;;;;;5.69;84.98;99151.29;434739;1309;141446;-60
2021/11/22 02:41:23;;;;;;;23.40;16.20;;;;;;;5.64;84.86;99164.88;433564;1309;141047;-61
2021/11/22 02:51:29;;;;;;;21.70;16.20;;;;;;;5.64;84.77;99177.73;434000;1309;142243;-62
2021/11/22 03:01:35;;;;;;;25.60;17.40;;;;;;;5.68;84.80;99192.66;433951;1312;141707;-59
2021/11/22 03:11:41;;;;;;;25.30;16.30;;;;;;;5.65;84.76;99206.52;435151;1310;141397;-60
2021/11/22 03:21:48;;;;;;;25.00;16.30;;;;;;;5.58;84.80;99202.49;435835;1309;181180;-60
2021/11/22 03:31:54;;;;;;;25.30;17.10;;;;;;;5.50;84.76;99209.14;434996;1309;142464;-60
2021/11/22 03:42:03;;;;;;;24.40;17.00;;;;;;;5.40;84.79;99210.52;435092;1308;142158;-60
2021/11/22 03:52:11;;;;;;;27.00;18.00;;;;;;;5.27;84.86;99221.73;423285;1307;141363;-59
2021/11/22 04:02:17;;;;;;;23.70;15.30;;;;;;;5.22;85.01;99239.34;434016;1309;142667;-60
2021/11/22 04:12:24;;;;;;;25.80;15.20;;;;;;;5.18;85.07;99250.21;422719;1310;145813;-59
2021/11/22 04:22:31;;;;;;;25.00;17.40;;;;;;;5.18;85.09;99255.14;427523;1309;142174;-59
2021/11/22 04:32:37;;;;;;;23.40;16.80;;;;;;;5.06;85.19;99262.41;426108;1309;142623;-59
2021/11/22 04:42:46;;;;;;;23.70;15.40;;;;;;;4.97;84.96;99272.58;425291;1309;141550;-59
2021/11/22 04:52:52;;;;;;;21.50;14.90;;;;;;;4.89;85.41;99286.27;436041;1309;141695;-60
2021/11/22 05:02:58;;;;;;;21.50;15.70;;;;;;;4.81;85.50;99294.10;432898;1309;141809;-59
2021/11/22 05:13:06;;;;;;;26.10;16.30;;;;;;;4.75;85.63;99300.61;436146;1309;143403;-59
2021/11/22 05:23:14;;;;;;;25.30;16.70;;;;;;;4.76;85.47;99311.85;423847;1309;142703;-59
2021/11/22 05:33:20;;;;;;;20.60;13.70;;;;;;;4.66;85.43;99327.72;420140;1308;141916;-60
2021/11/22 05:43:26;;;;;;;28.70;15.20;;;;;;;4.62;85.45;99339.15;421831;1310;141105;-61
2021/11/22 05:53:34;;;;;;;26.20;15.60;;;;;;;4.49;85.46;99351.67;433886;1312;141725;-61
2021/11/22 06:03:40;;;;;;;32.70;20.00;;;;;;;4.43;85.70;99363.53;424940;1312;142548;-60
2021/11/22 06:13:46;;;;;;;34.40;19.70;;;;;;;4.44;85.84;99371.46;435968;1309;142607;-60
2021/11/22 06:23:53;;;;;;;31.20;20.10;;;;;;;4.40;85.63;99392.79;433159;1310;142140;-60
2021/11/22 06:33:59;;;;;;;26.60;17.40;;;;;;;4.49;86.09;99411.63;423412;1310;141535;-60
2021/11/22 06:44:06;;;;;;;20.80;14.70;;;;;;;4.46;85.84;99431.67;432754;1310;142559;-60
2021/11/22 06:54:12;;;;;;;23.70;17.60;;;;;;;4.42;85.44;99441.21;433622;1309;142100;-62
2021/11/22 07:04:18;;;;;;;23.30;14.50;;;;;;;4.39;85.31;99443.10;433255;1310;141773;-61
2021/11/22 07:14:24;;;;;;;18.40;12.50;;;;;;;4.54;84.87;99462.41;435165;1306;141596;-63
2021/11/22 07:24:32;;;;;;;13.10;10.30;;;;;;;4.70;84.23;99475.27;429105;1310;143099;-69
2021/11/22 07:34:40;;;;;;;14.50;11.00;;;;;;;5.28;84.00;99488.23;423945;1312;142138;-68
2021/11/22 07:44:47;;;;;;;14.50;11.00;;;;;;;6.28;82.71;99497.15;435208;1310;143063;-68
2021/11/22 07:54:54;;;;;;;16.00;12.00;;;;;;;6.50;81.21;99507.25;435859;1310;142568;-68
2021/11/22 08:05:01;;;;;;;14.00;11.50;;;;;;;6.46;80.86;99513.84;431006;1309;142229;-64
2021/11/22 08:15:10;;;;;;;22.20;14.40;;;;;;;6.81;80.12;99527.32;419984;1309;141893;-75
2021/11/22 08:25:18;;;;;;;22.00;15.50;;;;;;;6.72;79.76;99548.61;429932;1309;141738;-65
2021/11/22 08:35:23;;;;;;;;;;;;;;;6.22;79.56;99562.81;419945;1309;141215;-62
2021/11/22 08:45:29;;;;;;;19.40;14.40;;;;;;;5.95;80.00;99570.95;435395;1307;128323;-65
2021/11/22 08:55:36;;;;;;;28.00;17.40;;;;;;;5.72;80.21;99586.70;435985;1309;142226;-62
2021/11/22 09:05:42;;;;;;;21.30;14.60;;;;;;;5.90;80.52;99598.61;435388;1309;142412;-62
2021/11/22 09:15:48;;;;;;;25.80;17.90;;;;;;;6.12;80.20;99603.44;413244;1309;10139090;-72
2021/11/22 09:25:54;;;;;;;22.70;16.10;;;;;;;6.15;79.90;99607.94;425209;1304;181648;-63
2021/11/22 09:36:00;;;;;;;22.10;17.00;;;;;;;6.71;79.78;99606.06;434059;1309;142416;-58
2021/11/22 09:46:07;;;;;;;20.40;15.30;;;;;;;7.25;78.72;99601.73;434306;1309;141938;-59
2021/11/22 09:56:15;;;;;;;21.00;15.10;;;;;;;7.87;77.60;99606.45;430105;1309;141978;-59
2021/11/22 10:06:23;;;;;;;25.90;15.80;;;;;;;7.66;76.27;99614.44;422081;1300;142294;-60
2021/11/22 10:16:29;;;;;;;21.30;16.00;;;;;;;7.05;76.60;99617.67;419737;1309;141983;-60
2021/11/22 10:26:45;;;;;;;21.30;16.10;;;;;;;6.57;77.20;99628.10;420809;1310;141917;-61
2021/11/22 10:37:00;;;;;;;20.40;14.40;;;;;;;6.29;77.51;99632.54;422018;1309;145904;-64
2021/11/22 10:47:14;;;;;;;18.50;14.20;;;;;;;6.04;77.68;99640.44;423028;1309;142356;-63
2021/11/22 10:57:22;;;;;;;14.90;11.50;;;;;;;5.92;77.84;99647.88;421276;1307;142390;-65
2021/11/22 11:07:31;;;;;;;19.10;11.40;;;;;;;5.84;77.56;99659.48;420766;1312;141423;-61
2021/11/22 11:17:42;;;;;;;17.20;12.20;;;;;;;5.70;77.63;99667.40;420150;1310;141694;-57
2021/11/22 11:27:49;;;;;;;19.40;14.00;;;;;;;5.61;77.90;99670.02;419910;1310;349231;-60
2021/11/22 11:38:09;;;;;;;16.10;11.50;;;;;;;5.62;78.16;99668.96;422755;1312;141178;-64
2021/11/22 11:48:27;;;;;;;16.10;12.00;;;;;;;5.61;78.13;99670.02;420838;1310;142164;-59
2021/11/22 11:58:34;;;;;;;14.50;12.10;;;;;;;5.61;78.18;99668.65;436052;1306;142409;-60
2021/11/22 12:08:40;;;;;;;12.80;11.40;;;;;;;5.64;77.86;99673.40;432572;1310;142168;-60
2021/11/22 12:18:47;;;;;;;14.10;11.10;;;;;;;5.94;77.90;99679.24;433831;1312;140866;-67
2021/11/22 12:28:58;;;;;;;16.50;11.80;;;;;;;6.22;77.42;99687.07;434927;1312;142031;-70
2021/11/22 12:39:09;;;;;;;17.00;13.60;;;;;;;6.24;76.49;99692.60;432719;1309;143135;-63
2021/11/22 12:49:33;;;;;;;13.40;11.10;;;;;;;6.14;76.34;99699.06;433407;1312;142544;-60
2021/11/22 12:59:44;;;;;;;13.90;9.70;;;;;;;6.15;76.20;99703.71;423805;1312;142194;-60
2021/11/22 13:09:50;;;;;;;12.60;8.00;;;;;;;6.03;75.65;99719.20;435399;1309;142901;-59
2021/11/22 13:19:59;;;;;;;7.50;5.50;;;;;;;5.74;75.06;99729.95;421148;1309;20001899;-63
2021/11/22 13:30:06;;;;;;;6.10;4.10;;;;;;;5.68;74.43;99723.23;434545;1310;142079;-63
2021/11/22 13:40:13;;;;;;;7.70;5.70;;;;;;;5.62;73.58;99736.69;422209;1309;140741;-69
2021/11/22 13:50:19;;;;;;;6.80;5.90;;;;;;;5.47;74.04;99750.29;433732;1312;141595;-65
2021/11/22 14:00:26;;;;;;;10.30;7.40;;;;;;;5.33;74.26;99768.74;432169;1310;141600;-63
2021/11/22 14:10:36;;;;;;;8.10;7.10;;;;;;;5.18;74.61;99778.35;419630;1309;141651;-64
2021/11/22 14:20:53;;;;;;;9.10;7.70;;;;;;;5.01;75.32;99783.84;426940;1309;142288;-63
2021/11/22 14:30:59;;;;;;;10.30;9.00;;;;;;;4.90;75.82;99789.27;429722;1309;141526;-59
2021/11/22 14:41:19;;;;;;;11.90;9.60;;;;;;;4.67;76.26;99803.64;432398;1309;141880;-69
2021/11/22 14:51:34;;;;;;;13.00;9.80;;;;;;;4.14;76.70;99811.89;435107;1309;142579;-70
2021/11/22 15:01:42;;;;;;;12.30;9.90;;;;;;;3.63;77.42;99819.77;436035;1309;142998;-63
2021/11/22 15:11:52;;;;;;;10.60;8.30;;;;;;;3.24;77.84;99829.63;422417;1309;142014;-67
2021/11/22 15:21:59;;;;;;;11.60;8.00;;;;;;;2.92;78.36;99835.73;435940;1309;141313;-65
2021/11/22 15:32:07;;;;;;;8.30;6.10;;;;;;;2.62;78.97;99846.73;436089;1310;142824;-62
2021/11/22 15:42:17;;;;;;;12.90;6.40;;;;;;;2.39;79.23;99849.25;419193;1312;10003469;-65
2021/11/22 15:52:24;;;;;;;10.00;6.80;;;;;;;2.15;79.81;99862.97;435903;1310;144130;-63
2021/11/22 16:02:30;;;;;;;9.60;7.90;;;;;;;1.98;80.25;99886.54;436006;1310;141660;-66
2021/11/22 16:12:36;;;;;;;10.80;8.40;;;;;;;1.77;80.59;99902.21;434364;1310;143996;-67
2021/11/22 16:22:42;;;;;;;14.20;9.70;;;;;;;1.64;80.98;99914.73;421306;1309;141159;-68
2021/11/22 16:32:48;;;;;;;13.30;9.80;;;;;;;1.41;81.35;99923.52;424314;1310;142612;-63
2021/11/22 16:42:55;;;;;;;16.20;9.90;;;;;;;1.26;81.91;99926.59;434717;1309;142476;-64
2021/11/22 16:53:01;;;;;;;19.10;12.00;;;;;;;1.20;82.36;99933.07;433325;1313;141621;-64
2021/11/22 17:03:09;;;;;;;14.20;9.70;;;;;;;1.12;82.43;99941.67;433020;1309;141398;-81
2021/11/22 17:13:16;;;;;;;10.50;6.20;;;;;;;1.07;82.47;99959.19;427760;1316;144065;-65
2021/11/22 17:23:23;;;;;;;9.10;6.20;;;;;;;1.05;82.30;99974.41;435881;1308;142128;-62
2021/11/22 17:33:29;;;;;;;9.10;6.50;;;;;;;1.02;82.40;99987.73;433423;1313;142043;-66
2021/11/22 17:43:36;;;;;;;7.50;6.30;;;;;;;0.96;82.32;99995.95;424423;1315;140934;-65
2021/11/22 17:53:42;;;;;;;15.40;8.90;;;;;;;0.73;82.20;100006.70;434256;1313;142458;-65
2021/11/22 18:03:51;;;;;;;12.40;8.70;;;;;;;0.57;82.29;100015.21;435872;1310;144760;-66
2021/11/22 18:13:57;;;;;;;13.90;9.40;;;;;;;0.36;82.36;100026.04;434106;1312;141735;-65
2021/11/22 18:24:03;;;;;;;18.70;10.40;;;;;;;0.17;82.46;100032.87;435212;1309;143618;-65
2021/11/22 18:34:09;;;;;;;17.90;11.10;;;;;;;0.08;82.64;100033.34;433562;1312;141385;-65
2021/11/22 18:44:16;;;;;;;20.80;11.30;;;;;;;0.25;83.15;100042.23;435028;1311;143170;-65
2021/11/22 18:54:24;;;;;;;19.70;13.00;;;;;;;0.51;83.19;100042.86;433140;1312;142307;-68
2021/11/22 19:04:31;;;;;;;31.40;18.00;;;;;;;0.68;83.01;100044.34;435001;1307;142994;-70
2021/11/22 19:14:38;;;;;;;36.60;22.00;;;;;;;0.76;82.84;100051.61;428683;1309;142160;-69
2021/11/22 19:24:43;;;;;;;;;;;;;;;0.79;82.93;100063.98;418967;1310;10003486;-65
2021/11/22 19:34:49;;;;;;;62.30;37.60;;;;;;;0.81;82.87;100069.30;428961;1307;128286;-64
2021/11/22 19:44:56;;;;;;;55.30;30.30;;;;;;;0.91;82.91;100070.51;429113;1310;141528;-65
2021/11/22 19:55:03;;;;;;;42.00;22.80;;;;;;;1.01;82.68;100069.99;433567;1306;141811;-69
2021/11/22 20:05:10;;;;;;;26.20;13.10;;;;;;;0.98;82.89;100078.15;423000;1309;140639;-63
2021/11/22 20:15:15;;;;;;;;;;;;;;;1.10;82.76;100084.67;423774;1309;143355;-64
2021/11/22 20:25:24;;;;;;;19.70;11.90;;;;;;;0.98;82.51;100091.77;422972;1306;128209;-64
2021/11/22 20:35:32;;;;;;;20.40;12.20;;;;;;;0.77;82.79;100098.31;423352;1309;141318;-64
2021/11/22 20:45:38;;;;;;;24.10;13.20;;;;;;;0.96;83.05;100108.70;433822;1309;143851;-66
2021/11/22 20:55:44;;;;;;;16.80;11.90;;;;;;;1.20;82.96;100123.48;421527;1310;141672;-66
2021/11/22 21:05:51;;;;;;;21.60;13.50;;;;;;;1.07;82.40;100128.86;426810;1306;142422;-66
2021/11/22 21:15:57;;;;;;;18.50;12.20;;;;;;;0.65;82.28;100135.20;433047;1312;141676;-67
2021/11/22 21:26:03;;;;;;;15.80;9.40;;;;;;;0.45;82.81;100148.73;424610;1309;141362;-66
2021/11/22 21:36:10;;;;;;;19.20;13.40;;;;;;;0.65;83.43;100164.83;420898;1307;142074;-66
2021/11/22 21:46:16;;;;;;;19.20;11.00;;;;;;;0.86;83.26;100170.39;426649;1309;141425;-65
2021/11/22 21:56:22;;;;;;;16.70;10.50;;;;;;;0.99;83.43;100170.90;435908;1307;142447;-66
2021/11/22 22:06:31;;;;;;;18.50;10.90;;;;;;;1.23;83.30;100167.44;422187;1309;141170;-65
2021/11/22 22:16:38;;;;;;;17.50;10.20;;;;;;;1.44;83.26;100178.80;435998;1309;141858;-67
2021/11/22 22:26:44;;;;;;;13.40;9.50;;;;;;;1.59;82.86;100178.54;435329;1309;143178;-67
2021/11/22 22:36:50;;;;;;;14.90;9.30;;;;;;;1.68;82.72;100180.29;422437;1309;143207;-65
2021/11/22 22:46:56;;;;;;;12.00;8.80;;;;;;;1.79;82.91;100169.73;421485;1305;141358;-65
2021/11/22 22:57:03;;;;;;;13.40;9.10;;;;;;;1.87;82.78;100169.59;420242;1309;141407;-65
2021/11/22 23:07:10;;;;;;;11.70;7.90;;;;;;;1.88;82.38;100174.41;420476;1309;141282;-65
2021/11/22 23:17:14;;;;;;;;;;;;;;;1.74;82.47;100170.88;420235;1309;141826;-65
2021/11/22 23:27:21;;;;;;;7.00;5.30;;;;;;;1.63;82.05;100167.96;430431;1310;127990;-67
2021/11/22 23:37:29;;;;;;;6.50;4.80;;;;;;;1.58;82.00;100174.08;436141;1309;143361;-66
2021/11/22 23:47:34;;;;;;;;;;;;;;;1.63;82.14;100179.34;434855;1307;141345;-67
2021/11/22 23:57:42;;;;;;;6.70;4.30;;;;;;;1.67;82.05;100184.27;436269;1309;128384;-71
